createdAt,value
2019-05-28T00:01:32.905Z,16.13
2019-05-28T00:06:38.624Z,15.78
2019-05-28T00:11:43.911Z,15.94
2019-05-28T00:16:49.499Z,16.07
2019-05-28T00:21:54.864Z,15.85
2019-05-28T00:27:00.120Z,15.76
2019-05-28T00:32:05.982Z,15.96
2019-05-28T00:37:13.492Z,16.37
2019-05-28T00:42:19.038Z,16.34
2019-05-28T00:47:24.310Z,16.28
2019-05-28T00:52:29.665Z,16.31
2019-05-28T00:57:35.107Z,16.74
2019-05-28T01:02:42.931Z,16.77
2019-05-28T01:07:50.463Z,16.70
2019-05-28T01:12:55.974Z,16.15
2019-05-28T01:18:01.739Z,15.74
2019-05-28T01:23:07.090Z,15.89
2019-05-28T01:28:12.445Z,15.72
2019-05-28T01:33:17.718Z,15.59
2019-05-28T01:38:23.126Z,15.67
2019-05-28T01:43:29.007Z,15.58
2019-05-28T01:48:34.241Z,15.53
2019-05-28T01:53:39.534Z,16.14
2019-05-28T01:58:44.756Z,16.03
2019-05-28T02:03:50.105Z,16.17
2019-05-28T02:08:55.419Z,16.42
2019-05-28T02:14:00.782Z,16.37
2019-05-28T02:19:06.110Z,16.23
2019-05-28T02:24:11.514Z,16.30
2019-05-28T02:29:16.656Z,16.29
2019-05-28T02:34:22.993Z,16.32
2019-05-28T02:39:28.398Z,16.24
2019-05-28T02:44:35.992Z,16.30
2019-05-28T02:49:41.280Z,16.39
2019-05-28T02:54:46.620Z,16.32
2019-05-28T02:59:53.616Z,16.25
2019-05-28T03:05:01.650Z,16.14
2019-05-28T03:10:08.526Z,15.97
2019-05-28T03:15:14.247Z,15.90
2019-05-28T03:20:19.429Z,15.93
2019-05-28T03:25:25.331Z,15.99
2019-05-28T03:30:30.926Z,15.92
2019-05-28T03:35:38.536Z,15.96
2019-05-28T03:40:45.038Z,15.88
2019-05-28T03:45:50.433Z,15.78
2019-05-28T03:50:57.023Z,16.05
2019-05-28T03:56:02.664Z,15.61
2019-05-28T04:01:08.394Z,15.58
2019-05-28T04:06:13.600Z,15.21
2019-05-28T04:11:18.925Z,15.31
2019-05-28T04:16:24.972Z,15.48
2019-05-28T04:21:30.110Z,15.20
2019-05-28T04:26:35.507Z,15.25
2019-05-28T04:31:40.666Z,15.30
2019-05-28T04:36:45.899Z,15.25
2019-05-28T04:41:51.117Z,14.93
2019-05-28T04:46:56.412Z,15.03
2019-05-28T04:52:01.858Z,15.22
2019-05-28T04:57:07.427Z,15.03
2019-05-28T05:02:13.933Z,15.43
2019-05-28T05:07:19.351Z,15.31
2019-05-28T05:12:24.685Z,15.32
2019-05-28T05:17:30.859Z,15.31
2019-05-28T05:22:36.098Z,15.39
2019-05-28T05:27:41.370Z,15.25
2019-05-28T05:32:47.199Z,15.22
2019-05-28T05:37:52.751Z,15.17
2019-05-28T05:42:57.983Z,14.79
2019-05-28T05:48:03.963Z,15.30
2019-05-28T05:53:09.607Z,15.38
2019-05-28T05:58:15.266Z,15.41
2019-05-28T06:03:39.215Z,15.59
2019-05-28T06:08:27.645Z,15.38
2019-05-28T06:13:34.662Z,15.62
2019-05-28T06:18:39.859Z,15.63
2019-05-28T06:23:45.027Z,15.38
2019-05-28T06:28:50.269Z,15.11
2019-05-28T06:33:57.535Z,15.28
2019-05-28T06:39:03.047Z,15.00
2019-05-28T06:44:10.551Z,15.24
2019-05-28T06:49:17.683Z,15.19
2019-05-28T06:54:22.895Z,15.25
2019-05-28T06:59:28.150Z,15.21
2019-05-28T07:04:33.691Z,15.28
2019-05-28T07:09:38.984Z,15.12
2019-05-28T07:14:47.614Z,15.31
2019-05-28T07:19:55.654Z,15.17
2019-05-28T07:25:00.909Z,15.59
2019-05-28T07:30:09.731Z,15.01
2019-05-28T07:35:16.544Z,15.38
2019-05-28T07:40:30.926Z,15.67
2019-05-28T07:45:28.708Z,15.57
2019-05-28T07:50:33.884Z,15.68
2019-05-28T07:55:39.014Z,15.69
2019-05-28T08:00:45.200Z,15.85
2019-05-28T08:05:51.265Z,15.34
2019-05-28T08:10:56.564Z,15.51
2019-05-28T08:16:18.093Z,15.56
2019-05-28T08:21:17.418Z,15.52
2019-05-28T08:26:23.426Z,15.71
2019-05-28T08:31:30.808Z,15.64
2019-05-28T08:36:35.950Z,15.09
2019-05-28T08:41:41.353Z,15.63
2019-05-28T08:46:47.436Z,15.38
2019-05-28T08:51:59.897Z,15.74
2019-05-28T08:57:05.094Z,16.00
2019-05-28T09:02:27.312Z,16.01
2019-05-28T09:07:19.305Z,16.28
2019-05-28T09:12:25.849Z,15.75
2019-05-28T09:17:34.274Z,15.82
2019-05-28T09:22:39.527Z,15.48
2019-05-28T09:27:45.187Z,15.52
2019-05-28T09:32:50.962Z,16.01
2019-05-28T09:37:56.324Z,15.71
2019-05-28T09:43:01.610Z,15.83
2019-05-28T09:48:06.904Z,15.38
2019-05-28T09:53:12.498Z,15.34
2019-05-28T09:58:19.133Z,15.74
2019-05-28T10:03:24.378Z,16.14
2019-05-28T10:08:30.103Z,16.08
2019-05-28T10:13:40.939Z,16.48
2019-05-28T10:18:44.243Z,16.46
2019-05-28T10:23:49.807Z,16.30
2019-05-28T10:28:55.866Z,15.75
2019-05-28T10:34:01.874Z,15.99
2019-05-28T10:39:08.613Z,15.60
2019-05-28T10:44:13.936Z,16.62
2019-05-28T10:49:19.382Z,16.97
2019-05-28T10:54:24.657Z,16.93
2019-05-28T10:59:29.797Z,16.32
2019-05-28T11:04:38.006Z,15.83
2019-05-28T11:09:43.157Z,16.27
2019-05-28T11:14:48.367Z,16.06
2019-05-28T11:19:53.936Z,15.82
2019-05-28T11:24:59.212Z,16.58
2019-05-28T11:30:06.993Z,16.62
2019-05-28T11:35:15.523Z,15.97
2019-05-28T11:40:21.578Z,16.04
2019-05-28T11:45:27.110Z,16.30
2019-05-28T11:50:32.609Z,16.41
2019-05-28T11:55:37.863Z,16.69
2019-05-28T12:00:43.067Z,16.93
2019-05-28T12:05:48.298Z,16.37
2019-05-28T12:10:53.626Z,17.14
2019-05-28T12:15:58.965Z,16.48
2019-05-28T12:21:04.398Z,17.13
2019-05-28T12:26:09.720Z,17.80
2019-05-28T12:31:14.836Z,17.46
2019-05-28T12:36:20.344Z,17.87
2019-05-28T12:41:25.472Z,17.97
2019-05-28T12:46:31.749Z,18.40
2019-05-28T12:51:39.265Z,17.86
2019-05-28T12:56:45.694Z,17.76
2019-05-28T13:01:50.850Z,18.21
2019-05-28T13:06:56.263Z,17.85
2019-05-28T13:12:02.490Z,17.68
2019-05-28T13:17:07.781Z,17.68
2019-05-28T13:22:15.684Z,17.43
2019-05-28T13:27:22.005Z,17.90
2019-05-28T13:32:28.763Z,17.51
2019-05-28T13:37:33.983Z,17.72
2019-05-28T13:42:39.127Z,17.76
2019-05-28T13:47:44.509Z,17.86
2019-05-28T13:52:50.212Z,17.29
2019-05-28T13:57:56.469Z,17.74
2019-05-28T14:03:01.762Z,18.17
2019-05-28T14:08:07.067Z,18.22
2019-05-28T14:13:15.447Z,17.40
2019-05-28T14:18:20.607Z,17.92
2019-05-28T14:23:26.076Z,18.17
2019-05-28T14:28:31.529Z,17.86
2019-05-28T14:33:36.786Z,17.80
2019-05-28T14:38:42.217Z,17.80
2019-05-28T14:43:49.086Z,18.06
2019-05-28T14:48:54.724Z,18.05
2019-05-28T14:54:00.316Z,18.01
2019-05-28T14:59:06.678Z,18.00
2019-05-28T15:04:12.867Z,17.86
2019-05-28T15:09:21.276Z,17.95
2019-05-28T15:14:26.227Z,18.09
2019-05-28T15:19:31.558Z,18.16
2019-05-28T15:24:37.300Z,18.31
2019-05-28T15:29:43.790Z,17.99
2019-05-28T15:34:49.006Z,18.18
2019-05-28T15:39:56.336Z,18.21
2019-05-28T15:45:02.265Z,17.83
2019-05-28T15:50:08.253Z,17.97
2019-05-28T15:55:13.919Z,17.79
2019-05-28T16:00:22.243Z,17.99
2019-05-28T16:05:27.546Z,17.67
2019-05-28T16:10:34.299Z,17.74
2019-05-28T16:15:39.563Z,17.63
2019-05-28T16:20:45.027Z,17.59
2019-05-28T16:25:50.695Z,17.50
2019-05-28T16:31:11.224Z,17.47
2019-05-28T16:36:06.674Z,17.43
2019-05-28T16:41:12.130Z,17.04
2019-05-28T16:46:17.283Z,16.86
2019-05-28T16:51:24.981Z,16.78
2019-05-28T16:56:30.654Z,16.69
2019-05-28T17:01:35.790Z,16.64
2019-05-28T17:06:40.980Z,16.78
2019-05-28T17:11:46.497Z,16.47
2019-05-28T17:16:52.017Z,16.50
2019-05-28T17:21:57.859Z,16.40
2019-05-28T17:27:03.860Z,16.25
2019-05-28T17:32:09.423Z,16.26
2019-05-28T17:37:14.624Z,16.25
2019-05-28T17:42:20.140Z,16.25
2019-05-28T17:47:25.386Z,16.21
2019-05-28T17:52:30.669Z,16.31
2019-05-28T17:57:37.300Z,16.16
2019-05-28T18:02:42.554Z,16.29
2019-05-28T18:07:47.880Z,16.02
2019-05-28T18:12:53.315Z,16.07
2019-05-28T18:17:58.618Z,16.23
2019-05-28T18:23:04.009Z,16.08
2019-05-28T18:28:09.534Z,16.05
2019-05-28T18:33:16.810Z,16.06
2019-05-28T18:38:22.051Z,16.11
2019-05-28T18:43:27.897Z,15.99
2019-05-28T18:48:33.147Z,15.65
2019-05-28T18:53:38.893Z,15.84
2019-05-28T18:58:44.224Z,15.61
2019-05-28T19:03:49.608Z,15.68
2019-05-28T19:08:54.751Z,15.56
2019-05-28T19:14:00.042Z,15.61
2019-05-28T19:19:05.331Z,15.68
2019-05-28T19:24:10.620Z,15.63
2019-05-28T19:29:16.018Z,15.71
2019-05-28T19:34:21.661Z,15.56
2019-05-28T19:39:28.933Z,15.51
2019-05-28T19:44:35.588Z,15.39
2019-05-28T19:49:40.877Z,15.57
2019-05-28T19:54:48.484Z,15.64
2019-05-28T19:59:56.802Z,15.62
2019-05-28T20:05:04.375Z,15.37
2019-05-28T20:10:09.801Z,15.52
2019-05-28T20:15:23.761Z,15.18
2019-05-28T20:20:28.211Z,15.45
2019-05-28T20:25:33.467Z,15.11
2019-05-28T20:30:40.559Z,15.34
2019-05-28T20:35:45.762Z,15.42
2019-05-28T20:40:50.953Z,15.43
2019-05-28T20:45:56.599Z,15.37
2019-05-28T20:51:09.710Z,15.43
2019-05-28T20:56:10.077Z,15.28
2019-05-28T21:01:15.687Z,14.45
2019-05-28T21:06:21.286Z,14.62
2019-05-28T21:11:26.521Z,14.68
2019-05-28T21:16:32.288Z,15.11
2019-05-28T21:21:37.516Z,15.01
2019-05-28T21:26:42.814Z,15.29
2019-05-28T21:31:48.850Z,14.92
2019-05-28T21:36:54.926Z,15.27
2019-05-28T21:42:01.763Z,15.25
2019-05-28T21:47:07.228Z,14.43
2019-05-28T21:52:12.431Z,14.90
2019-05-28T21:57:17.816Z,14.71
2019-05-28T22:02:23.379Z,14.97
2019-05-28T22:07:28.635Z,14.54
2019-05-28T22:12:34.839Z,14.81
2019-05-28T22:17:40.048Z,15.01
2019-05-28T22:22:45.242Z,14.85
2019-05-28T22:27:50.561Z,14.96
2019-05-28T22:32:56.118Z,14.67
2019-05-28T22:38:01.409Z,14.33
2019-05-28T22:43:06.874Z,14.49
2019-05-28T22:48:16.811Z,14.38
2019-05-28T22:53:19.231Z,14.45
2019-05-28T22:58:24.560Z,14.38
2019-05-28T23:03:29.835Z,14.31
2019-05-28T23:08:35.064Z,14.38
2019-05-28T23:13:46.914Z,14.25
2019-05-28T23:18:47.334Z,14.22
2019-05-28T23:23:52.464Z,13.94
2019-05-28T23:28:57.859Z,13.82
2019-05-28T23:34:04.315Z,13.23
2019-05-28T23:39:11.133Z,13.30
2019-05-28T23:44:16.681Z,13.35
2019-05-28T23:49:22.115Z,13.37
2019-05-28T23:54:27.746Z,13.35
2019-05-28T23:59:32.990Z,13.37
